Latest Weather Observations for Canberra

IDN60801

Issued at 3:05 pm EST Wednesday 17 September 2014 (issued every 30 minutes, with the page automatically refreshed every 10 minutes)

About weather observations | Map of weather stations | Latest weather observations for NSW | Other Formats
Station Details ID: 070351 Name: CANBERRA AIRPORT Lat: -35.31 Lon: 149.20 Height: 577.05 m
Data from the previous 72 hours. | See also: Recent months at Canberra
Date/Time
EST
Temp
°C
App
Temp
°C
Dew
Point
Rel
Hum
%
Delta-T
°C
Wind Press
QNH
hPa
Press
MSL
hPa
Rain
since 9 am
mm
Dir
 
Spd
km/h
Gust
km/h
Spd
kts
Gust
kts
17/03:00pm 12.3 4.2 1.0 46 4.9 WNW 33 46 18 25 1011.5 1011.7 0.0
17/02:30pm 13.5 7.2 1.5 44 5.3 WNW 24 35 13 19 1011.5 - 0.0
17/02:00pm 12.7 4.8 1.1 45 5.1 WNW 32 44 17 24 1011.6 - 0.0
17/01:30pm 13.2 5.1 1.2 44 5.3 WNW 33 43 18 23 1011.6 - 0.0
17/01:00pm 13.1 4.9 0.5 42 5.5 WNW 33 48 18 26 1011.5 - 0.0
17/12:30pm 14.6 6.7 1.2 40 6.0 WNW 32 41 17 22 1011.6 - 0.0
17/12:00pm 14.2 7.4 0.5 39 6.0 W 26 39 14 21 1011.7 1011.9 0.0
17/11:30am 13.9 6.7 0.9 41 5.7 W 28 37 15 20 1012.0 - 0.0
17/11:00am 13.3 6.4 0.3 41 5.6 W 26 39 14 21 1012.3 - 0.0
17/10:30am 12.9 6.5 1.0 44 5.2 W 24 41 13 22 1012.4 - 0.0
17/10:00am 11.9 5.1 1.0 47 4.7 W 26 32 14 17 1012.5 - 0.0
17/09:30am 12.7 5.7 -0.2 41 5.5 W 26 37 14 20 1012.6 - 0.0
17/09:00am 12.6 6.3 1.3 46 5.0 W 24 30 13 16 1012.7 1012.9 0.0
17/08:30am 12.2 6.4 2.4 51 4.4 W 22 33 12 18 1012.8 - 0.0
17/08:00am 11.2 4.7 2.5 55 3.9 W 26 35 14 19 1012.8 - 0.0
17/07:30am 10.1 4.0 2.7 60 3.3 WNW 24 35 13 19 1012.8 - 0.0
17/07:00am 9.4 4.0 2.3 61 3.1 WNW 20 30 11 16 1012.4 - 0.0
17/06:30am 8.4 3.3 3.1 69 2.3 WNW 19 26 10 14 1012.0 - 0.0
17/06:00am 8.0 3.8 5.6 85 1.1 NNW 17 22 9 12 1011.7 1011.9 0.0
17/05:30am 7.8 2.7 5.8 87 0.9 NW 22 28 12 15 1011.3 - 0.0
17/05:00am 8.5 3.7 5.8 83 1.3 NNW 20 26 11 14 1011.1 - 0.0
17/04:30am 8.5 4.4 6.1 85 1.1 NNW 17 20 9 11 1010.8 - 0.0
17/04:00am 9.0 5.0 6.6 85 1.2 N 17 19 9 10 1010.7 - 0.0
17/03:30am 8.2 4.8 6.0 86 1.0 NNW 13 17 7 9 1010.3 - 0.0
17/03:00am 8.4 5.2 6.7 89 0.8 N 13 15 7 8 1010.4 1010.5 0.0
17/02:30am 8.9 5.0 7.2 89 0.8 N 17 19 9 10 1010.4 - 0.0
17/02:00am 9.4 6.0 7.5 88 0.9 N 15 19 8 10 1010.3 - 0.0
17/01:30am 9.8 6.3 7.4 85 1.2 NW 15 17 8 9 1010.4 - 0.0
17/01:00am 10.0 6.4 8.3 89 0.9 NNW 17 24 9 13 1010.7 - 0.0
17/12:30am 9.9 5.8 8.7 92 0.6 NNW 20 26 11 14 1010.7 - 0.0
17/12:00am 9.3 5.7 8.2 93 0.5 N 17 24 9 13 1010.8 1011.0 0.0
 
Date/Time
EST
Temp
°C
App
Temp
°C
Dew
Point
Rel
Hum
%
Delta-T
°C
Wind Press
QNH
hPa
Press
MSL
hPa
Rain
since 9 am
mm
Dir
 
Spd
km/h
Gust
km/h
Spd
kts
Gust
kts
16/11:30pm 9.6 5.5 7.9 89 0.8 N 19 24 10 13 1010.7 - 0.0
16/11:00pm 9.5 5.3 7.6 88 0.9 N 19 24 10 13 1010.9 - 0.0
16/10:30pm 9.8 5.0 7.2 84 1.3 N 22 26 12 14 1011.1 - 0.0
16/10:00pm 10.5 6.6 7.0 79 1.7 NNE 17 20 9 11 1011.1 - 0.0
16/09:30pm 10.6 7.1 7.1 79 1.7 NNW 15 19 8 10 1010.9 - 0.0
16/09:00pm 10.9 5.8 7.8 81 1.6 NW 24 30 13 16 1010.5 1010.6 0.0
16/08:30pm 11.1 7.7 7.8 80 1.7 NNW 15 20 8 11 1010.7 - 0.0
16/08:00pm 11.1 7.6 7.2 77 1.9 N 15 19 8 10 1010.5 - 0.0
16/07:30pm 10.3 6.6 6.3 76 1.9 NNW 15 17 8 9 1010.2 - 0.0
16/07:00pm 10.7 7.4 6.3 74 2.1 NW 13 17 7 9 1009.8 - 0.0
16/06:30pm 12.2 7.5 6.0 66 3.0 WNW 20 30 11 16 1009.7 - 0.0
16/06:00pm 12.4 6.3 6.5 67 2.9 WNW 28 37 15 20 1009.2 1009.4 0.0
16/05:30pm 12.8 7.1 6.6 66 3.1 WNW 26 37 14 20 1008.8 - 0.0
16/05:00pm 12.3 6.9 8.2 76 2.1 NW 26 32 14 17 1008.5 - 0.0
16/04:30pm 13.6 7.1 8.2 70 2.8 NW 32 41 17 22 1007.8 - 0.0
16/04:00pm 13.9 8.9 8.1 68 3.0 NNW 24 32 13 17 1008.2 - 0.0
16/03:30pm 13.6 8.8 8.7 72 2.5 NW 24 35 13 19 1008.0 - 0.0
16/03:00pm 13.4 6.2 7.8 69 2.9 NW 35 46 19 25 1007.7 1007.9 0.0
16/02:30pm 15.3 8.6 8.1 62 3.7 NW 33 43 18 23 1007.5 - 0.0
16/02:00pm 16.5 9.8 8.0 57 4.4 NW 33 44 18 24 1007.5 - 0.0
16/01:49pm 16.8 9.5 7.4 54 4.8 NW 35 44 19 24 1007.5 - 0.0
16/01:30pm 16.1 8.7 8.3 60 4.1 NNW 37 48 20 26 1007.6 - 0.0
16/01:03pm 17.5 9.8 7.3 51 5.3 NNW 37 50 20 27 1007.9 - 0.0
16/12:30pm 17.1 10.6 8.3 56 4.6 NW 32 41 17 22 1008.2 - 0.0
16/12:00pm 16.6 10.6 8.8 60 4.1 NNW 30 37 16 20 1008.5 1008.6 0.0
16/11:37am 17.2 11.8 9.6 61 4.1 N 28 48 15 26 1008.9 - 0.0
16/11:30am 16.8 12.0 9.0 60 4.2 NNW 24 35 13 19 1009.0 - 0.0
16/11:00am 16.2 12.1 8.7 61 4.0 N 20 32 11 17 1009.4 - 0.0
16/10:30am 15.7 10.4 7.0 56 4.4 NNW 24 32 13 17 1009.7 - 0.0
16/10:00am 16.3 12.4 8.5 60 4.1 N 19 26 10 14 1009.7 - 0.0
16/09:30am 15.5 11.2 8.0 61 3.9 N 20 30 11 16 1010.1 - 0.0
16/09:00am 15.2 12.4 8.7 65 3.4 N 13 20 7 11 1010.3 1010.4 1.4
16/08:30am 14.2 13.0 9.6 74 2.4 NW 6 11 3 6 1010.3 - 1.4
16/08:00am 13.0 12.1 9.4 79 1.9 NW 4 7 2 4 1010.4 - 1.4
16/07:30am 12.6 11.3 9.8 83 1.5 SE 7 7 4 4 1010.3 - 1.4
16/07:00am 11.3 10.0 9.9 91 0.7 ESE 7 11 4 6 1010.4 - 1.4
16/06:30am 10.7 10.2 9.5 92 0.6 NNE 2 7 1 4 1010.3 - 1.4
16/06:00am 10.4 9.9 9.5 94 0.5 SE 2 7 1 4 1010.4 1010.5 1.4
16/05:30am 9.5 7.9 8.7 95 0.4 E 7 9 4 5 1010.7 - 1.2
16/05:00am 9.1 7.3 7.9 92 0.6 ESE 7 11 4 6 1010.8 - 0.8
16/04:30am 9.3 7.2 8.2 93 0.5 SE 9 13 5 7 1010.6 - 0.8
16/04:00am 10.0 8.1 8.9 93 0.6 SE 9 13 5 7 1011.0 - 0.8
16/03:30am 10.2 6.3 9.3 94 0.5 SE 20 26 11 14 1011.3 - 0.6
16/03:22am 10.4 7.5 9.5 94 0.5 SSW 15 17 8 9 1012.5 - 0.6
16/03:11am 10.5 6.9 9.9 96 0.3 W 19 26 10 14 1013.1 - 0.4
16/03:00am 9.4 6.8 9.3 99 0.1 W 13 22 7 12 1012.6 1012.8 0.2
16/02:30am 9.0 6.9 8.2 95 0.4 E 9 11 5 6 1011.6 - 0.2
16/02:00am 9.1 6.9 8.0 93 0.5 SSE 9 11 5 6 1011.7 - 0.2
16/01:30am 10.9 9.5 9.7 92 0.6 SE 7 11 4 6 1012.2 - 0.2
16/01:00am 9.4 6.4 9.3 99 0.1 SE 15 17 8 9 1012.3 - 0.2
16/12:30am 8.5 7.5 7.3 92 0.6 E 2 9 1 5 1013.3 - 0.2
16/12:00am 10.3 8.9 9.5 95 0.4 S 7 9 4 5 1013.7 1013.9 0.2
 
Date/Time
EST
Temp
°C
App
Temp
°C
Dew
Point
Rel
Hum
%
Delta-T
°C
Wind Press
QNH
hPa
Press
MSL
hPa
Rain
since 9 am
mm
Dir
 
Spd
km/h
Gust
km/h
Spd
kts
Gust
kts
15/11:30pm 9.8 8.1 8.4 91 0.7 SE 7 9 4 5 1013.5 - 0.2
15/11:00pm 10.9 9.4 9.3 90 0.8 SE 7 9 4 5 1014.0 - 0.2
15/10:30pm 11.2 9.8 9.5 89 0.9 ESE 7 9 4 5 1014.6 - 0.2
15/10:00pm 12.4 10.9 9.2 81 1.7 NNW 7 11 4 6 1015.2 - 0.2
15/09:30pm 12.9 10.1 8.6 75 2.2 NE 13 17 7 9 1015.0 - 0.0
15/09:00pm 12.5 10.2 7.4 71 2.6 ENE 9 11 5 6 1015.0 1015.2 0.0
15/08:30pm 14.8 12.6 6.4 57 4.2 W 7 13 4 7 1015.0 - 0.0
15/08:00pm 14.4 11.4 6.0 57 4.1 NE 11 13 6 7 1015.0 - 0.0
15/07:30pm 14.1 11.1 6.2 59 3.9 NNE 11 11 6 6 1014.9 - 0.0
15/07:00pm 13.4 11.3 6.5 63 3.4 NNE 7 9 4 5 1014.8 - 0.0
15/06:30pm 13.3 11.0 5.7 60 3.7 NE 7 9 4 5 1014.5 - 0.0
15/06:00pm 14.6 12.4 5.4 54 4.5 NE 6 9 3 5 1014.3 1014.5 0.0
15/05:30pm 15.2 12.3 4.6 49 5.1 N 9 11 5 6 1014.4 - 0.0
15/05:00pm 16.0 12.2 4.1 45 5.7 N 13 17 7 9 1014.2 - 0.0
15/04:30pm 16.8 12.4 4.5 44 6.0 N 17 20 9 11 1014.1 - 0.0
15/04:00pm 17.0 13.3 6.5 50 5.3 NNW 15 19 8 10 1014.1 - 0.0
15/03:30pm 16.9 12.1 5.5 47 5.7 NW 20 26 11 14 1014.3 - 0.0
15/03:00pm 18.7 14.2 6.9 46 6.1 NW 20 28 11 15 1014.4 1014.6 0.0
15/02:30pm 18.1 13.9 5.7 44 6.2 N 17 24 9 13 1014.6 - 0.0
15/02:00pm 17.2 13.8 5.8 47 5.7 N 13 22 7 12 1014.8 - 0.0
15/01:30pm 17.7 15.2 5.0 43 6.3 NNE 7 13 4 7 1015.0 - 0.0
15/01:00pm 17.4 14.3 5.4 45 6.0 N 11 17 6 9 1015.3 - 0.0
15/12:30pm 17.2 14.8 7.0 51 5.2 NW 9 13 5 7 1015.8 - 0.0
15/12:00pm 16.3 14.4 7.5 56 4.5 NW 7 13 4 7 1016.4 1016.6 0.0
15/11:30am 14.7 13.0 7.5 62 3.7 NW 6 9 3 5 1017.0 - 0.0
15/11:00am 13.5 11.6 7.5 67 3.0 WNW 7 11 4 6 1017.7 - 0.0
15/10:30am 12.3 10.5 8.0 75 2.2 W 7 11 4 6 1018.1 - 0.0
15/10:00am 11.5 9.6 7.4 76 2.0 WNW 7 11 4 6 1018.3 - 0.0
15/09:30am 11.0 9.8 7.9 81 1.6 NW 4 9 2 5 1018.6 - 0.0
15/09:00am 9.1 6.9 7.9 92 0.6 SSE 9 13 5 7 1018.8 1019.1 0.0
15/08:30am 7.7 5.7 7.1 96 0.3 S 7 11 4 6 1019.0 - 0.0
15/08:00am 7.2 4.8 6.8 97 0.2 E 9 11 5 6 1018.9 - 0.0
15/07:30am 6.8 4.9 6.5 98 0.1 S 6 7 3 4 1018.8 - 0.0
15/07:00am 6.1 4.0 5.7 97 0.2 S 6 7 3 4 1018.9 - 0.0
15/06:30am 5.8 4.8 5.5 98 0.1 CALM 0 0 0 0 1018.8 - 0.0
15/06:00am 5.4 3.2 5.1 98 0.1 N 6 7 3 4 1018.9 1019.2 0.0
15/05:30am 5.2 2.9 4.9 98 0.1 NNW 6 7 3 4 1018.7 - 0.0
15/05:00am 5.6 3.8 5.5 99 0.0 SSE 4 9 2 5 1018.5 - 0.0
15/04:30am 4.6 2.1 4.5 99 0.0 SE 7 9 4 5 1018.4 - 0.0
15/04:00am 3.6 2.2 3.5 99 0.0 CALM 0 7 0 4 1018.4 - 0.0
15/03:30am 2.4 0.8 2.3 99 0.0 CALM 0 0 0 0 1018.2 - 0.0
15/03:13am 3.3 0.5 3.2 99 0.0 ENE 7 11 4 6 1018.2 - 0.0
15/03:05am 2.1 -0.9 2.0 99 0.0 ENE 7 9 4 5 1018.4 - 0.0
15/03:00am 2.4 -0.9 2.3 99 0.0 E 9 13 5 7 1018.4 1018.7 0.0
15/02:51am 1.9 -1.1 1.8 99 0.0 NNE 7 13 4 7 1018.5 - 0.0
15/02:30am 1.2 -1.1 0.2 93 0.4 SE 2 9 1 5 1018.6 - 0.0
15/02:17am 4.9 2.4 4.8 99 0.0 ESE 7 9 4 5 1018.6 - 0.0
15/02:00am 2.5 -0.5 2.2 98 0.1 ESE 7 9 4 5 1018.8 - 0.0
15/01:47am 2.6 -0.4 2.0 96 0.2 E 7 9 4 5 1018.9 - 0.0
15/01:40am 3.3 1.0 2.9 97 0.2 N 4 9 2 5 1019.0 - 0.0
15/01:30am 3.5 2.0 2.8 95 0.3 CALM 0 0 0 0 1019.1 - 0.0
15/01:00am 4.0 1.5 3.9 99 0.0 SE 6 7 3 4 1018.9 - 0.0
15/12:30am 3.6 0.0 3.0 96 0.3 SE 11 13 6 7 1018.8 - 0.0
15/12:00am 4.3 1.5 3.3 93 0.4 SSE 7 9 4 5 1019.1 1019.4 0.0
 
Date/Time
EST
Temp
°C
App
Temp
°C
Dew
Point
Rel
Hum
%
Delta-T
°C
Wind Press
QNH
hPa
Press
MSL
hPa
Rain
since 9 am
mm
Dir
 
Spd
km/h
Gust
km/h
Spd
kts
Gust
kts
14/11:30pm 4.6 3.1 2.8 88 0.8 CALM 0 6 0 3 1019.1 - 0.0
14/11:00pm 6.1 3.7 4.1 87 0.9 NNW 6 7 3 4 1019.1 - 0.0
14/10:30pm 5.5 2.0 3.7 88 0.8 ESE 11 11 6 6 1019.1 - 0.0
14/10:00pm 5.8 2.3 3.5 85 1.0 SE 11 15 6 8 1019.4 - 0.0
14/09:30pm 8.9 5.7 4.9 76 1.8 NE 11 15 6 8 1019.1 - 0.0
14/09:00pm 9.8 6.0 5.6 75 2.0 NNE 15 17 8 9 1019.0 1019.3 0.0
14/08:30pm 10.1 6.2 5.5 73 2.2 N 15 17 8 9 1018.7 - 0.0
14/08:00pm 11.4 6.8 5.7 68 2.7 N 19 20 10 11 1018.6 - 0.0
14/07:30pm 11.7 7.0 5.3 65 3.0 N 19 24 10 13 1018.2 - 0.0
14/07:00pm 11.9 7.6 5.1 63 3.2 N 17 22 9 12 1017.9 - 0.0
14/06:30pm 12.5 7.8 5.0 60 3.6 N 19 24 10 13 1017.8 - 0.0
14/06:00pm 13.3 9.0 5.2 58 3.9 N 17 22 9 12 1017.6 1017.8 0.0
14/05:30pm 14.3 8.8 5.7 56 4.2 N 24 32 13 17 1017.4 - 0.0
14/05:00pm 15.4 9.5 5.6 52 4.8 N 26 35 14 19 1017.1 - 0.0
14/04:30pm 16.2 9.2 5.8 50 5.2 NNW 32 41 17 22 1017.0 - 0.0
14/04:00pm 16.8 10.3 6.6 51 5.2 NNW 30 37 16 20 1016.9 - 0.0
14/03:30pm 17.0 10.5 6.5 50 5.3 NNW 30 39 16 21 1016.9 - 0.0

Other Formats:

Comma delimited format used in spreadsheet applications
http://www.bom.gov.au/fwo/IDN60801/IDN60801.94926.axf

JavaScript Object Notation format (JSON) in row-major order
http://www.bom.gov.au/fwo/IDN60801/IDN60801.94926.json